createdAt,value
2017-11-16T00:00:16.299Z,6.40
2017-11-16T00:02:44.732Z,6.30
2017-11-16T00:05:12.506Z,6.30
2017-11-16T00:07:40.162Z,6.30
2017-11-16T00:10:07.872Z,6.30
2017-11-16T00:12:35.547Z,6.30
2017-11-16T00:15:03.310Z,6.20
2017-11-16T00:17:30.979Z,6.30
2017-11-16T00:19:58.688Z,6.20
2017-11-16T00:22:26.356Z,6.10
2017-11-16T00:24:54.828Z,6.10
2017-11-16T00:27:22.496Z,6.10
2017-11-16T00:29:50.972Z,5.90
2017-11-16T00:32:19.392Z,6.10
2017-11-16T00:34:47.089Z,6.00
2017-11-16T00:37:14.743Z,6.10
2017-11-16T00:39:42.441Z,6.20
2017-11-16T00:42:10.141Z,6.10
2017-11-16T00:44:37.815Z,6.10
2017-11-16T00:47:05.524Z,6.10
2017-11-16T00:49:33.968Z,6.00
2017-11-16T00:52:01.675Z,6.00
2017-11-16T00:54:29.332Z,5.90
2017-11-16T00:56:57.652Z,6.00
2017-11-16T00:59:25.333Z,5.90
2017-11-16T01:01:53.036Z,5.90
2017-11-16T01:04:20.700Z,6.00
2017-11-16T01:06:48.400Z,6.00
2017-11-16T01:09:16.068Z,6.00
2017-11-16T01:11:43.849Z,6.00
2017-11-16T01:14:12.272Z,6.00
2017-11-16T01:16:39.971Z,6.00
2017-11-16T01:19:07.625Z,6.00
2017-11-16T01:21:35.324Z,6.00
2017-11-16T01:24:02.984Z,6.10
2017-11-16T01:26:30.685Z,6.00
2017-11-16T01:28:58.343Z,5.90
2017-11-16T01:31:26.045Z,5.80
2017-11-16T01:33:54.461Z,6.00
2017-11-16T01:36:22.161Z,6.00
2017-11-16T01:38:49.812Z,6.00
2017-11-16T01:41:17.521Z,5.90
2017-11-16T01:43:45.191Z,6.00
2017-11-16T01:46:12.885Z,6.00
2017-11-16T01:48:40.601Z,6.00
2017-11-16T01:51:08.262Z,6.10
2017-11-16T01:53:35.967Z,6.00
2017-11-16T01:56:03.654Z,6.00
2017-11-16T01:58:32.150Z,5.70
2017-11-16T02:00:59.872Z,5.70
2017-11-16T02:03:27.596Z,5.70
2017-11-16T02:05:55.275Z,5.60
2017-11-16T02:08:22.975Z,5.70
2017-11-16T02:10:51.409Z,5.80
2017-11-16T02:13:19.109Z,5.80
2017-11-16T02:15:47.531Z,5.80
2017-11-16T02:18:15.222Z,5.80
2017-11-16T02:20:42.929Z,5.80
2017-11-16T02:23:10.684Z,5.80
2017-11-16T02:25:38.386Z,5.90
2017-11-16T02:28:06.152Z,5.90
2017-11-16T02:30:33.860Z,5.80
2017-11-16T02:33:02.378Z,5.90
2017-11-16T02:35:30.087Z,5.80
2017-11-16T02:37:58.593Z,5.70
2017-11-16T02:40:26.322Z,5.70
2017-11-16T02:42:54.841Z,5.70
2017-11-16T02:45:22.543Z,5.70
2017-11-16T02:47:50.305Z,5.70
2017-11-16T02:50:18.021Z,5.60
2017-11-16T02:52:45.735Z,5.70
2017-11-16T02:55:13.496Z,5.80
2017-11-16T02:57:41.216Z,5.90
2017-11-16T03:00:08.989Z,5.80
2017-11-16T03:02:36.729Z,5.80
2017-11-16T03:05:04.492Z,5.70
2017-11-16T03:07:32.184Z,5.70
2017-11-16T03:09:59.941Z,5.60
2017-11-16T03:12:27.617Z,5.70
2017-11-16T03:14:55.328Z,5.70
2017-11-16T03:17:23.000Z,5.90
2017-11-16T03:19:50.751Z,5.80
2017-11-16T03:22:18.436Z,5.70
2017-11-16T03:24:46.162Z,5.70
2017-11-16T03:27:13.888Z,5.70
2017-11-16T03:29:42.453Z,5.70
2017-11-16T03:32:10.124Z,5.60
2017-11-16T03:34:37.874Z,5.60
2017-11-16T03:37:05.543Z,5.50
2017-11-16T03:39:33.267Z,5.70
2017-11-16T03:42:00.942Z,5.60
2017-11-16T03:44:28.644Z,5.50
2017-11-16T03:46:57.063Z,5.80
2017-11-16T03:49:24.793Z,5.80
2017-11-16T03:51:52.513Z,5.90
2017-11-16T03:54:20.208Z,5.90
2017-11-16T03:56:48.670Z,6.00
2017-11-16T03:59:16.408Z,6.00
2017-11-16T04:01:44.076Z,6.00
2017-11-16T04:04:11.731Z,5.90
2017-11-16T04:06:39.425Z,5.90
2017-11-16T04:09:07.839Z,5.90
2017-11-16T04:11:35.588Z,5.90
2017-11-16T04:14:03.276Z,6.20
2017-11-16T04:16:30.980Z,6.20
2017-11-16T04:18:59.431Z,5.90
2017-11-16T04:21:27.195Z,5.90
2017-11-16T04:23:54.875Z,5.80
2017-11-16T04:26:23.336Z,5.90
2017-11-16T04:28:50.996Z,5.80
2017-11-16T04:31:18.693Z,5.90
2017-11-16T04:33:46.369Z,5.90
2017-11-16T04:36:14.071Z,5.80
2017-11-16T04:38:41.725Z,5.70
2017-11-16T04:41:09.415Z,5.80
2017-11-16T04:43:37.827Z,5.80
2017-11-16T04:46:05.520Z,5.70
2017-11-16T04:48:33.165Z,5.80
2017-11-16T04:51:00.855Z,5.70
2017-11-16T04:53:28.505Z,5.70
2017-11-16T04:55:56.197Z,5.70
2017-11-16T04:58:24.391Z,5.70
2017-11-16T05:00:52.088Z,5.70
2017-11-16T05:03:19.763Z,5.70
2017-11-16T05:05:47.496Z,5.70
2017-11-16T05:08:15.191Z,5.80
2017-11-16T05:10:43.616Z,5.80
2017-11-16T05:13:11.308Z,5.80
2017-11-16T05:15:38.963Z,5.90
2017-11-16T05:18:06.656Z,5.90
2017-11-16T05:20:35.679Z,5.80
2017-11-16T05:23:03.447Z,5.80
2017-11-16T05:25:31.157Z,5.80
2017-11-16T05:27:59.624Z,5.70
2017-11-16T05:30:27.288Z,5.70
2017-11-16T05:32:55.022Z,5.90
2017-11-16T05:35:22.700Z,5.90
2017-11-16T05:37:50.419Z,5.80
2017-11-16T05:40:18.084Z,5.60
2017-11-16T05:42:45.820Z,5.70
2017-11-16T05:45:13.522Z,5.70
2017-11-16T05:47:41.256Z,5.60
2017-11-16T05:50:08.939Z,5.70
2017-11-16T05:52:36.637Z,5.60
2017-11-16T05:55:05.065Z,5.70
2017-11-16T05:57:32.785Z,5.70
2017-11-16T06:00:01.448Z,5.60
2017-11-16T06:02:29.180Z,5.60
2017-11-16T06:04:56.884Z,5.50
2017-11-16T06:07:25.309Z,5.60
2017-11-16T06:09:53.025Z,5.60
2017-11-16T06:12:21.441Z,5.50
2017-11-16T06:14:49.146Z,5.50
2017-11-16T06:17:16.840Z,5.60
2017-11-16T06:19:44.539Z,5.60
2017-11-16T06:22:12.198Z,5.50
2017-11-16T06:24:39.892Z,5.60
2017-11-16T06:27:08.312Z,5.50
2017-11-16T06:29:36.030Z,5.50
2017-11-16T06:32:04.456Z,5.60
2017-11-16T06:34:32.164Z,5.60
2017-11-16T06:36:59.824Z,5.50
2017-11-16T06:39:27.511Z,5.60
2017-11-16T06:41:55.157Z,5.50
2017-11-16T06:44:22.880Z,5.60
2017-11-16T06:46:50.525Z,5.60
2017-11-16T06:49:18.215Z,5.40
2017-11-16T06:51:45.869Z,5.40
2017-11-16T06:54:13.570Z,5.40
2017-11-16T06:56:41.229Z,5.20
2017-11-16T06:59:08.927Z,5.20
2017-11-16T07:01:36.577Z,5.20
2017-11-16T07:04:05.036Z,5.40
2017-11-16T07:06:32.692Z,5.40
2017-11-16T07:09:00.348Z,5.50
2017-11-16T07:11:28.088Z,5.50
2017-11-16T07:13:56.508Z,5.50
2017-11-16T07:16:24.208Z,5.40
2017-11-16T07:18:51.864Z,5.40
2017-11-16T07:21:19.564Z,5.30
2017-11-16T07:23:47.235Z,5.40
2017-11-16T07:26:14.980Z,5.40
2017-11-16T07:28:42.656Z,5.50
2017-11-16T07:31:10.357Z,5.20
2017-11-16T07:33:38.028Z,5.30
2017-11-16T07:36:05.749Z,5.20
2017-11-16T07:38:33.441Z,5.30
2017-11-16T07:41:01.199Z,5.40
2017-11-16T07:43:28.864Z,5.30
2017-11-16T07:45:56.597Z,5.30
2017-11-16T07:48:24.273Z,5.20
2017-11-16T07:50:52.036Z,5.20
2017-11-16T07:53:19.762Z,5.10
2017-11-16T07:55:47.466Z,5.20
2017-11-16T07:58:15.168Z,5.20
2017-11-16T08:00:42.895Z,5.30
2017-11-16T08:03:10.549Z,5.20
2017-11-16T08:05:38.245Z,5.20
2017-11-16T08:08:05.899Z,5.20
2017-11-16T08:10:33.563Z,5.10
2017-11-16T08:13:01.266Z,5.20
2017-11-16T08:15:29.752Z,5.20
2017-11-16T08:17:57.444Z,5.20
2017-11-16T08:20:25.868Z,5.40
2017-11-16T08:22:53.567Z,5.30
2017-11-16T08:25:21.228Z,5.30
2017-11-16T08:27:48.921Z,5.40
2017-11-16T08:30:16.578Z,5.30
2017-11-16T08:32:44.312Z,5.40
2017-11-16T08:35:12.763Z,5.30
2017-11-16T08:37:40.463Z,5.30
2017-11-16T08:40:08.913Z,5.30
2017-11-16T08:42:36.650Z,5.30
2017-11-16T08:45:04.369Z,5.30
2017-11-16T08:47:32.144Z,5.30
2017-11-16T08:49:59.864Z,5.30
2017-11-16T08:52:27.601Z,5.20
2017-11-16T08:54:55.312Z,5.20
2017-11-16T08:57:23.109Z,5.20
2017-11-16T08:59:50.816Z,5.40
2017-11-16T09:02:19.336Z,5.40
2017-11-16T09:04:47.033Z,5.40
2017-11-16T09:07:14.805Z,5.40
2017-11-16T09:09:42.522Z,5.20
2017-11-16T09:12:10.292Z,5.30
2017-11-16T09:14:38.257Z,5.40
2017-11-16T09:17:05.978Z,5.40
2017-11-16T09:19:33.780Z,5.40
2017-11-16T09:22:01.527Z,5.50
2017-11-16T09:24:29.288Z,5.60
2017-11-16T09:26:57.011Z,5.60
2017-11-16T09:29:25.504Z,5.40
2017-11-16T09:31:53.933Z,5.30
2017-11-16T09:34:21.646Z,5.30
2017-11-16T09:36:49.365Z,5.40
2017-11-16T09:39:17.116Z,5.40
2017-11-16T09:41:44.795Z,5.50
2017-11-16T09:44:12.492Z,5.60
2017-11-16T09:46:40.152Z,5.60
2017-11-16T09:49:07.889Z,5.70
2017-11-16T09:51:36.320Z,5.60
2017-11-16T09:54:04.023Z,5.50
2017-11-16T09:56:32.452Z,5.70
2017-11-16T09:59:00.190Z,5.70
2017-11-16T10:01:27.850Z,5.70
2017-11-16T10:03:55.553Z,5.80
2017-11-16T10:06:23.208Z,5.80
2017-11-16T10:08:50.928Z,5.90
2017-11-16T10:11:18.576Z,5.80
2017-11-16T10:13:46.288Z,5.80
2017-11-16T10:16:13.934Z,5.80
2017-11-16T10:18:41.598Z,5.90
2017-11-16T10:21:10.060Z,5.60
2017-11-16T10:23:37.720Z,5.60
2017-11-16T10:26:05.503Z,5.30
2017-11-16T10:28:33.163Z,5.50
2017-11-16T10:31:00.873Z,5.60
2017-11-16T10:33:29.307Z,5.70
2017-11-16T10:35:57.015Z,5.70
2017-11-16T10:38:24.685Z,5.50
2017-11-16T10:40:52.383Z,5.70
2017-11-16T10:43:20.076Z,5.70
2017-11-16T10:45:48.560Z,5.90
2017-11-16T10:48:17.005Z,6.00
2017-11-16T10:50:44.724Z,6.00
2017-11-16T10:53:12.410Z,5.80
2017-11-16T10:55:40.127Z,5.80
2017-11-16T10:58:07.793Z,5.80
2017-11-16T11:00:35.514Z,5.80
2017-11-16T11:03:03.172Z,5.80
2017-11-16T11:05:30.884Z,5.80
2017-11-16T11:07:58.546Z,5.70
2017-11-16T11:10:26.240Z,5.70
2017-11-16T11:12:53.892Z,5.80
2017-11-16T11:15:21.588Z,5.90
2017-11-16T11:17:50.087Z,5.70
2017-11-16T11:20:17.820Z,5.70
2017-11-16T11:22:45.485Z,5.90
2017-11-16T11:25:13.910Z,6.00
2017-11-16T11:27:41.612Z,6.00
2017-11-16T11:30:09.293Z,6.00
2017-11-16T11:32:37.764Z,5.90
2017-11-16T11:35:06.187Z,5.90
2017-11-16T11:37:33.889Z,5.90
2017-11-16T11:40:01.541Z,5.90
2017-11-16T11:42:30.172Z,5.80
2017-11-16T11:44:57.828Z,5.90
2017-11-16T11:47:25.591Z,5.80
2017-11-16T11:49:53.260Z,5.70
2017-11-16T11:52:20.960Z,5.70
2017-11-16T11:54:48.612Z,5.80
2017-11-16T11:57:16.308Z,5.80
2017-11-16T11:59:44.735Z,5.80
2017-11-16T12:02:12.432Z,5.80
2017-11-16T12:04:40.124Z,5.90
2017-11-16T12:07:07.864Z,5.70
2017-11-16T12:09:36.280Z,5.90
2017-11-16T12:12:04.000Z,5.90
2017-11-16T12:17:11.428Z,5.90
2017-11-16T12:19:39.085Z,5.70
2017-11-16T12:22:06.797Z,5.70
2017-11-16T12:24:34.457Z,5.70
2017-11-16T12:27:02.764Z,5.60
2017-11-16T12:29:31.279Z,5.20
2017-11-16T12:31:58.992Z,5.20
2017-11-16T12:34:27.517Z,5.20
2017-11-16T12:36:55.240Z,5.10
2017-11-16T12:39:23.758Z,5.10
2017-11-16T12:41:51.468Z,5.00
2017-11-16T12:44:20.117Z,5.20
2017-11-16T12:46:47.826Z,5.20
2017-11-16T12:49:15.577Z,5.30
2017-11-16T12:51:44.063Z,5.60
2017-11-16T12:54:12.577Z,5.50
2017-11-16T12:56:40.301Z,5.50
2017-11-16T12:59:08.800Z,5.60
2017-11-16T13:01:36.481Z,5.50
2017-11-16T13:04:04.184Z,5.60
2017-11-16T13:06:32.653Z,5.50
2017-11-16T13:09:00.397Z,5.50
2017-11-16T13:11:28.237Z,5.50
2017-11-16T13:13:55.937Z,5.60
2017-11-16T13:16:23.593Z,5.50
2017-11-16T13:18:51.438Z,5.60
2017-11-16T13:21:19.093Z,5.60
2017-11-16T13:23:46.798Z,5.50
2017-11-16T13:26:15.223Z,5.60
2017-11-16T13:28:42.933Z,5.60
2017-11-16T13:31:11.388Z,5.70
2017-11-16T13:33:39.048Z,5.70
2017-11-16T13:36:06.793Z,5.70
2017-11-16T13:38:34.484Z,5.70
2017-11-16T13:41:02.953Z,5.60
2017-11-16T13:43:31.394Z,5.50
2017-11-16T13:45:59.100Z,5.50
2017-11-16T13:48:27.745Z,5.60
2017-11-16T13:50:55.444Z,5.60
2017-11-16T13:53:23.945Z,5.50
2017-11-16T13:55:51.651Z,5.60
2017-11-16T13:58:19.310Z,5.60
2017-11-16T14:00:47.167Z,5.60
2017-11-16T14:03:14.841Z,5.60
2017-11-16T14:05:42.567Z,5.50
2017-11-16T14:08:10.263Z,5.40
2017-11-16T14:10:37.974Z,5.40
2017-11-16T14:13:05.636Z,5.50
2017-11-16T14:15:33.340Z,5.60
2017-11-16T14:18:01.001Z,5.50
2017-11-16T14:20:28.707Z,5.50
2017-11-16T14:22:56.359Z,5.20
2017-11-16T14:25:24.822Z,5.30
2017-11-16T14:27:53.247Z,5.30
2017-11-16T14:30:20.956Z,5.30
2017-11-16T14:32:48.618Z,5.30
2017-11-16T14:35:17.127Z,5.40
2017-11-16T14:37:44.796Z,5.40
2017-11-16T14:40:13.326Z,5.30
2017-11-16T14:42:41.095Z,5.20
2017-11-16T14:45:09.540Z,5.30
2017-11-16T14:47:37.251Z,5.30
2017-11-16T14:50:05.678Z,5.40
2017-11-16T14:52:33.377Z,5.40
2017-11-16T14:55:01.800Z,5.40
2017-11-16T14:57:29.517Z,5.30
2017-11-16T14:59:57.961Z,5.30
2017-11-16T15:02:25.669Z,5.30
2017-11-16T15:04:53.336Z,5.30
2017-11-16T15:07:21.077Z,5.30
2017-11-16T15:09:49.543Z,5.40
2017-11-16T15:12:17.243Z,5.40
2017-11-16T15:14:44.915Z,5.20
2017-11-16T15:17:12.617Z,5.00
2017-11-16T15:19:40.290Z,5.10
2017-11-16T15:22:08.773Z,5.20
2017-11-16T15:24:37.195Z,5.20
2017-11-16T15:27:04.891Z,5.10
2017-11-16T15:29:32.548Z,5.20
2017-11-16T15:32:00.289Z,5.30
2017-11-16T15:34:27.953Z,5.30
2017-11-16T15:36:55.656Z,5.20
2017-11-16T15:39:23.326Z,5.30
2017-11-16T15:41:51.065Z,5.20
2017-11-16T15:44:19.501Z,5.30
2017-11-16T15:46:47.192Z,5.30
2017-11-16T15:49:14.909Z,5.20
2017-11-16T15:51:42.568Z,5.20
2017-11-16T15:54:10.278Z,5.10
2017-11-16T15:56:38.713Z,5.20
2017-11-16T15:59:06.482Z,5.20
2017-11-16T16:01:34.149Z,5.40
2017-11-16T16:04:01.849Z,5.40
2017-11-16T16:06:30.267Z,5.30
2017-11-16T16:08:57.969Z,5.30
2017-11-16T16:11:26.461Z,5.10
2017-11-16T16:13:54.933Z,5.10
2017-11-16T16:16:22.624Z,5.10
2017-11-16T16:18:50.333Z,5.10
2017-11-16T16:21:17.993Z,5.00
2017-11-16T16:23:45.696Z,5.00
2017-11-16T16:26:13.352Z,5.00
2017-11-16T16:28:41.067Z,5.00
2017-11-16T16:31:08.753Z,5.00
2017-11-16T16:33:37.305Z,4.90
2017-11-16T16:36:04.996Z,4.90
2017-11-16T16:38:33.466Z,4.90
2017-11-16T16:41:01.909Z,4.90
2017-11-16T16:43:29.665Z,4.90
2017-11-16T16:45:57.345Z,4.80
2017-11-16T16:48:25.071Z,4.80
2017-11-16T16:50:52.749Z,4.80
2017-11-16T16:53:20.509Z,4.90
2017-11-16T16:55:48.272Z,4.90
2017-11-16T16:58:15.957Z,5.00
2017-11-16T17:00:43.714Z,5.00
2017-11-16T17:03:11.450Z,5.10
2017-11-16T17:05:39.198Z,5.10
2017-11-16T17:08:06.869Z,5.10
2017-11-16T17:10:34.599Z,5.00
2017-11-16T17:13:02.272Z,5.00
2017-11-16T17:15:30.015Z,5.00
2017-11-16T17:17:57.677Z,4.90
2017-11-16T17:20:25.404Z,4.90
2017-11-16T17:22:53.067Z,4.90
2017-11-16T17:25:21.545Z,4.90
2017-11-16T17:27:49.980Z,4.90
2017-11-16T17:30:17.689Z,4.80
2017-11-16T17:32:46.112Z,4.70
2017-11-16T17:35:13.818Z,4.70
2017-11-16T17:37:41.501Z,4.80
2017-11-16T17:40:09.233Z,4.70
2017-11-16T17:42:36.922Z,4.70
2017-11-16T17:45:04.685Z,4.60
2017-11-16T17:47:32.342Z,4.60
2017-11-16T17:50:00.049Z,4.60
2017-11-16T17:52:27.715Z,4.60
2017-11-16T17:54:55.427Z,4.60
2017-11-16T17:57:23.088Z,4.60
2017-11-16T17:59:50.766Z,4.60
2017-11-16T18:02:18.480Z,4.60
2017-11-16T18:04:46.908Z,4.60
2017-11-16T18:07:14.617Z,4.60
2017-11-16T18:09:43.076Z,4.60
2017-11-16T18:12:10.854Z,4.60
2017-11-16T18:14:38.524Z,4.50
2017-11-16T18:17:06.991Z,4.70
2017-11-16T18:19:34.659Z,4.70
2017-11-16T18:22:03.133Z,4.60
2017-11-16T18:24:31.632Z,4.50
2017-11-16T18:27:00.981Z,4.50
2017-11-16T18:29:28.731Z,4.60
2017-11-16T18:31:56.432Z,4.70
2017-11-16T18:34:24.881Z,4.60
2017-11-16T18:36:52.580Z,4.60
2017-11-16T18:39:21.006Z,4.60
2017-11-16T18:41:48.717Z,4.60
2017-11-16T18:44:17.149Z,4.60
2017-11-16T18:46:44.853Z,4.50
2017-11-16T18:49:13.272Z,4.50
2017-11-16T18:51:40.988Z,4.50
2017-11-16T18:54:09.404Z,4.40
2017-11-16T18:56:37.101Z,4.40
2017-11-16T18:59:04.779Z,4.40
2017-11-16T19:01:33.267Z,4.40
2017-11-16T19:04:01.688Z,4.30
2017-11-16T19:06:29.357Z,4.30
2017-11-16T19:08:57.061Z,4.40
2017-11-16T19:11:25.481Z,4.30
2017-11-16T19:13:53.185Z,4.30
2017-11-16T19:16:21.612Z,4.40
2017-11-16T19:18:49.308Z,4.40
2017-11-16T19:21:16.971Z,4.40
2017-11-16T19:23:44.673Z,4.50
2017-11-16T19:26:12.328Z,4.30
2017-11-16T19:28:40.057Z,4.30
2017-11-16T19:31:07.739Z,4.30
2017-11-16T19:33:36.201Z,4.20
2017-11-16T19:36:04.676Z,4.30
2017-11-16T19:38:33.157Z,4.10
2017-11-16T19:41:01.602Z,4.20
2017-11-16T19:43:29.313Z,4.20
2017-11-16T19:45:57.021Z,4.20
2017-11-16T19:48:24.740Z,4.20
2017-11-16T19:50:52.416Z,4.20
2017-11-16T19:53:20.162Z,4.30
2017-11-16T19:55:48.305Z,4.10
2017-11-16T19:58:16.054Z,4.10
2017-11-16T20:00:44.511Z,4.10
2017-11-16T20:03:12.245Z,4.10
2017-11-16T20:05:39.944Z,4.10
2017-11-16T20:08:07.656Z,4.10
2017-11-16T20:10:35.372Z,4.10
2017-11-16T20:13:03.045Z,4.10
2017-11-16T20:15:31.516Z,4.10
2017-11-16T20:17:59.264Z,4.00
2017-11-16T20:20:26.970Z,4.00
2017-11-16T20:22:54.653Z,4.10
2017-11-16T20:25:22.365Z,4.00
2017-11-16T20:27:50.809Z,4.00
2017-11-16T20:30:18.544Z,4.00
2017-11-16T20:32:46.226Z,4.10
2017-11-16T20:35:13.979Z,4.00
2017-11-16T20:37:47.320Z,4.10
2017-11-16T20:43:38.343Z,4.00
2017-11-16T20:46:12.523Z,4.00
2017-11-16T20:48:45.981Z,4.00
2017-11-16T20:51:16.247Z,4.00
2017-11-16T20:56:45.384Z,4.00
2017-11-16T20:59:13.853Z,3.90
2017-11-16T21:01:42.325Z,3.90
2017-11-16T21:04:09.989Z,3.90
2017-11-16T21:06:37.730Z,4.10
2017-11-16T21:09:05.465Z,4.10
2017-11-16T21:11:37.583Z,4.10
2017-11-16T21:14:09.161Z,4.20
2017-11-16T21:16:40.310Z,4.10
2017-11-16T21:19:11.561Z,4.10
2017-11-16T21:21:44.035Z,4.10
2017-11-16T21:24:14.674Z,4.00
2017-11-16T21:26:46.370Z,4.10
2017-11-16T21:29:16.742Z,4.00
2017-11-16T21:31:47.524Z,4.00
2017-11-16T21:34:17.959Z,4.10
2017-11-16T21:36:50.588Z,4.00
2017-11-16T21:39:22.486Z,4.00
2017-11-16T21:41:50.373Z,4.00
2017-11-16T21:44:18.072Z,4.00
2017-11-16T21:46:45.764Z,4.20
2017-11-16T21:49:14.184Z,4.00
2017-11-16T21:51:41.893Z,4.00
2017-11-16T21:54:09.559Z,4.00
2017-11-16T21:56:37.277Z,3.90
2017-11-16T21:59:04.931Z,4.00
2017-11-16T22:01:32.632Z,4.10
2017-11-16T22:04:00.285Z,4.20
2017-11-16T22:06:27.944Z,4.10
2017-11-16T22:08:55.644Z,4.00
2017-11-16T22:11:23.300Z,4.00
2017-11-16T22:13:50.999Z,3.90
2017-11-16T22:16:19.418Z,3.90
2017-11-16T22:18:47.889Z,3.90
2017-11-16T22:21:15.551Z,3.90
2017-11-16T22:23:44.031Z,4.00
2017-11-16T22:26:12.460Z,3.90
2017-11-16T22:28:40.177Z,3.90
2017-11-16T22:31:08.596Z,4.10
2017-11-16T22:33:36.297Z,4.00
2017-11-16T22:36:03.992Z,4.00
2017-11-16T22:38:31.697Z,4.00
2017-11-16T22:40:59.361Z,3.90
2017-11-16T22:43:27.060Z,3.90
2017-11-16T22:45:55.484Z,4.00
2017-11-16T22:48:23.957Z,4.00
2017-11-16T22:50:51.617Z,4.00
2017-11-16T22:53:19.325Z,4.10
2017-11-16T22:55:47.761Z,4.00
2017-11-16T22:58:15.460Z,4.00
2017-11-16T23:00:43.888Z,4.00
2017-11-16T23:03:11.600Z,3.90
2017-11-16T23:05:40.027Z,4.10
2017-11-16T23:08:07.680Z,4.10
2017-11-16T23:10:35.372Z,4.00
2017-11-16T23:13:03.032Z,3.90
2017-11-16T23:15:30.741Z,4.10
2017-11-16T23:17:58.400Z,4.00
2017-11-16T23:20:26.113Z,4.00
2017-11-16T23:22:53.769Z,4.00
2017-11-16T23:25:21.488Z,4.00
2017-11-16T23:27:49.158Z,4.10
2017-11-16T23:30:16.872Z,4.10
2017-11-16T23:32:45.302Z,4.10
2017-11-16T23:35:13.008Z,4.10
2017-11-16T23:37:41.432Z,4.00
2017-11-16T23:40:09.134Z,4.00
2017-11-16T23:42:36.800Z,4.00
2017-11-16T23:45:05.272Z,4.00
2017-11-16T23:47:32.977Z,4.00
2017-11-16T23:50:00.676Z,4.00
2017-11-16T23:52:28.332Z,4.00
2017-11-16T23:54:56.036Z,3.90
2017-11-16T23:57:24.461Z,4.10
2017-11-16T23:59:52.167Z,4.10
